| time (UTC) | temp C | wind direction | speed KPH | gust KPH | rain 1hr cm | rain 24hr cm | rain mn cm | humidity % | barometer mb |
| 20260504223056 | 12 | 198 | 12.9 | 27.4 | 0.00 | 0.00 | 0.00 | 84 | 1011.9 |
| 20260504221540 | 13 | 196 | 14.5 | 30.6 | 0.00 | 0.00 | 0.00 | 83 | 1012.0 |
| 20260504220040 | 13 | 144 | 16.1 | 38.6 | 0.00 | 0.00 | 0.00 | 82 | 1012.1 |
| 20260504214539 | 13 | 231 | 14.5 | 37.0 | 0.00 | 0.00 | 0.00 | 81 | 1012.0 |
| 20260504213050 | 13 | 183 | 14.5 | 33.8 | 0.00 | 0.00 | 0.00 | 80 | 1012.1 |
| 20260504211538 | 13 | 216 | 16.1 | 32.2 | 0.00 | 0.00 | 0.00 | 80 | 1012.1 |
| 20260504210040 | 13 | 181 | 17.7 | 37.0 | 0.00 | 0.00 | 0.00 | 78 | 1012.1 |
| 20260504204544 | 14 | 215 | 19.3 | 32.2 | 0.00 | 0.00 | 0.00 | 77 | 1012.0 |
| 20260504203041 | 14 | 193 | 17.7 | 30.6 | 0.00 | 0.00 | 0.00 | 77 | 1012.0 |
| 20260504201534 | 14 | 208 | 17.7 | 29.0 | 0.00 | 0.00 | 0.00 | 76 | 1012.0 |
| 20260504200034 | 15 | 178 | 16.1 | 38.6 | 0.00 | 0.00 | 0.00 | 76 | 1012.3 |
| 20260504194532 | 15 | 216 | 17.7 | 30.6 | 0.00 | 0.00 | 0.00 | 75 | 1012.4 |
| 20260504193030 | 15 | 196 | 19.3 | 32.2 | 0.00 | 0.00 | 0.00 | 75 | 1012.6 |
| 20260504191529 | 14 | 173 | 17.7 | 35.4 | 0.00 | 0.00 | 0.00 | 76 | 1012.7 |
| 20260504190028 | 15 | 225 | 19.3 | 40.2 | 0.00 | 0.00 | 0.00 | 75 | 1012.8 |
| 20260504184527 | 15 | 196 | 20.9 | 32.2 | 0.00 | 0.00 | 0.00 | 74 | 1012.9 |
| 20260504183024 | 15 | 196 | 16.1 | 32.2 | 0.00 | 0.00 | 0.00 | 74 | 1013.1 |
| 20260504181521 | 15 | 185 | 16.1 | 32.2 | 0.00 | 0.00 | 0.00 | 74 | 1013.2 |
| 20260504180020 | 15 | 210 | 17.7 | 33.8 | 0.00 | 0.00 | 0.00 | 74 | 1013.4 |
| 20260504174518 | 15 | 208 | 16.1 | 29.0 | 0.00 | 0.00 | 0.00 | 76 | 1013.5 |
| 20260504173015 | 15 | 189 | 14.5 | 35.4 | 0.00 | 0.00 | 0.00 | 76 | 1013.5 |
| 20260504171513 | 15 | 160 | 16.1 | 30.6 | 0.00 | 0.00 | 0.00 | 76 | 1013.7 |
| 20260504081507 | 10 | 218 | 6.4 | 14.5 | 0.00 | 0.00 | 0.00 | 69 | 1015.0 |
| 20260504044556 | 10 | 238 | 8.0 | 16.1 | 0.00 | 0.00 | 0.00 | 73 | 1014.1 |
| 20260504043050 | 10 | 251 | 4.8 | 14.5 | 0.00 | 0.00 | 0.00 | 72 | 1014.1 |
| 20260504041543 | 10 | 241 | 4.8 | 16.1 | 0.00 | 0.00 | 0.00 | 69 | 1014.1 |
| 20260504040054 | 11 | 178 | 3.2 | 12.9 | 0.00 | 0.00 | 0.00 | 66 | 1014.0 |
| 20260504034551 | 10 | 253 | 4.8 | 14.5 | 0.00 | 0.00 | 0.00 | 67 | 1013.9 |
| 20260504033037 | 11 | 231 | 4.8 | 14.5 | 0.00 | 0.00 | 0.00 | 70 | 1013.8 |
| 20260504031535 | 11 | 210 | 3.2 | 12.9 | 0.00 | 0.00 | 0.00 | 65 | 1013.8 |
| 20260504030037 | 11 | 224 | 6.4 | 14.5 | 0.00 | 0.00 | 0.00 | 66 | 1013.7 |
| 20260504024535 | 11 | 254 | 6.4 | 12.9 | 0.00 | 0.00 | 0.00 | 67 | 1013.7 |
| 20260504023034 | 11 | 237 | 3.2 | 11.3 | 0.00 | 0.00 | 0.00 | 65 | 1013.9 |
| 20260504021532 | 11 | 236 | 3.2 | 11.3 | 0.00 | 0.00 | 0.00 | 64 | 1013.8 |
| 20260504020033 | 11 | 223 | 3.2 | 6.4 | 0.00 | 0.00 | 0.00 | 62 | 1013.8 |
| 20260504014530 | 11 | 255 | 3.2 | 11.3 | 0.00 | 0.00 | 0.00 | 61 | 1013.7 |
| 20260504013033 | 12 | 248 | 1.6 | 6.4 | 0.00 | 0.00 | 0.00 | 56 | 1013.5 |
| 20260504011527 | 12 | 239 | 3.2 | 9.7 | 0.00 | 0.00 | 0.00 | 50 | 1013.4 |
| 20260504010025 | 12 | 260 | 0.0 | 3.2 | 0.00 | 0.00 | 0.00 | 39 | 1013.1 |
| 20260504004524 | 13 | 260 | 0.0 | 3.2 | 0.00 | 0.00 | 0.00 | 37 | 1012.9 |
| 20260504003022 | 13 | 261 | 1.6 | 4.8 | 0.00 | 0.00 | 0.00 | 36 | 1012.8 |
| 20260504001520 | 13 | 243 | 1.6 | 8.0 | 0.00 | 0.00 | 0.00 | 35 | 1012.5 |
| 20260504000020 | 14 | 295 | 6.4 | 16.1 | 0.00 | 0.00 | 0.00 | 34 | 1012.4 |
| 20260503234519 | 14 | 279 | 8.0 | 19.3 | 0.00 | 0.00 | 0.00 | 33 | 1012.3 |
| 20260503233019 | 15 | 297 | 11.3 | 22.5 | 0.00 | 0.00 | 0.00 | 32 | 1012.1 |
| 20260503231521 | 15 | 293 | 12.9 | 24.1 | 0.00 | 0.00 | 0.00 | 30 | 1011.9 |
| 20260503230022 | 15 | 312 | 14.5 | 30.6 | 0.00 | 0.00 | 0.00 | 30 | 1011.8 |
| 20260503224516 | 15 | 277 | 17.7 | 38.6 | 0.00 | 0.00 | 0.00 | 30 | 1011.7 |